Time;durP1;ratioP1;P1;durP2;ratioP2;P2;SDS_P1;SDS_P2;PMS_P1;PMS_P2;Temp;Humidity;BMP_temperature;BMP_pressure;BME280_temperature;BME280_humidity;BME280_pressure;Samples;Min_cycle;Max_cycle;Signal;HPM_P1;HPM_P2
2021/09/02 00:01:07;;;;;;;81.85;37.33;;;11.50;99.90;;;;;;5011885;28;20042;-58
2021/09/02 00:03:33;;;;;;;79.55;34.60;;;11.40;99.90;;;;;;5012348;28;20037;-59
2021/09/02 00:05:58;;;;;;;74.32;33.00;;;11.40;99.90;;;;;;5012330;28;20021;-58
2021/09/02 00:08:24;;;;;;;77.47;35.25;;;11.30;99.90;;;;;;5010933;28;20025;-58
2021/09/02 00:10:49;;;;;;;74.82;34.85;;;11.30;99.90;;;;;;5013069;28;20053;-56
2021/09/02 00:13:15;;;;;;;70.38;33.50;;;11.40;99.90;;;;;;5011497;28;20075;-58
2021/09/02 00:15:41;;;;;;;77.00;35.33;;;11.50;99.90;;;;;;5011632;28;20084;-58
2021/09/02 00:18:06;;;;;;;75.47;35.45;;;11.50;99.90;;;;;;5008388;28;20036;-61
2021/09/02 00:20:32;;;;;;;74.80;34.72;;;11.50;99.90;;;;;;5006699;28;20413;-54
2021/09/02 00:22:58;;;;;;;87.78;35.63;;;11.50;99.90;;;;;;5008481;28;20375;-57
2021/09/02 00:25:24;;;;;;;81.00;34.70;;;11.50;99.90;;;;;;5010995;28;20071;-59
2021/09/02 00:27:49;;;;;;;89.05;39.15;;;11.50;99.90;;;;;;5010194;28;20026;-58
2021/09/02 00:30:15;;;;;;;79.78;37.10;;;11.60;99.90;;;;;;5010929;28;20397;-55
2021/09/02 00:32:40;;;;;;;89.90;37.03;;;11.60;99.90;;;;;;5005820;28;20026;-57
2021/09/02 00:35:06;;;;;;;87.63;36.63;;;11.70;99.90;;;;;;5009551;28;20040;-58
2021/09/02 00:37:32;;;;;;;88.72;36.67;;;11.80;99.90;;;;;;5011334;28;20034;-58
2021/09/02 00:39:58;;;;;;;83.97;37.03;;;11.80;99.90;;;;;;5011360;28;20022;-57
2021/09/02 00:42:23;;;;;;;93.07;38.85;;;11.80;99.90;;;;;;5012030;28;20083;-57
2021/09/02 00:44:49;;;;;;;86.95;37.42;;;11.80;99.90;;;;;;5011337;28;20125;-59
2021/09/02 00:47:15;;;;;;;89.75;38.10;;;11.80;99.90;;;;;;5010339;28;20117;-55
2021/09/02 00:49:43;;;;;;;101.22;40.33;;;11.80;99.90;;;;;;5009814;28;20018;-59
2021/09/02 00:52:11;;;;;;;94.07;37.65;;;11.90;99.90;;;;;;5012338;28;20105;-56
2021/09/02 00:54:37;;;;;;;99.13;40.45;;;11.90;99.90;;;;;;5011184;28;20041;-60
2021/09/02 00:57:03;;;;;;;95.28;38.30;;;11.90;99.90;;;;;;5010007;28;20026;-60
2021/09/02 00:59:28;;;;;;;91.72;38.22;;;11.90;99.90;;;;;;5009880;28;20501;-58
2021/09/02 01:01:54;;;;;;;86.80;36.92;;;12.00;99.90;;;;;;5010133;28;20029;-60
2021/09/02 01:04:21;;;;;;;96.90;41.53;;;12.10;99.90;;;;;;5010308;28;20485;-58
2021/09/02 01:06:48;;;;;;;94.45;39.90;;;12.10;99.90;;;;;;5029360;23;20038;-60
2021/09/02 01:09:14;;;;;;;101.65;39.97;;;12.10;99.90;;;;;;4995706;28;20031;-60
2021/09/02 01:11:40;;;;;;;101.32;40.72;;;12.10;99.90;;;;;;4992385;28;20032;-60
2021/09/02 01:14:06;;;;;;;112.15;43.40;;;12.10;99.90;;;;;;4991600;28;20104;-61
2021/09/02 01:16:31;;;;;;;105.65;42.65;;;12.20;99.90;;;;;;4989160;28;20114;-60
2021/09/02 01:18:57;;;;;;;111.60;42.80;;;12.20;99.90;;;;;;4987734;28;20057;-61
2021/09/02 01:21:22;;;;;;;108.47;41.53;;;12.20;99.90;;;;;;4984421;28;20049;-62
2021/09/02 01:23:49;;;;;;;113.03;42.17;;;12.30;99.90;;;;;;4982227;28;20058;-60
2021/09/02 01:26:20;;;;;;;103.68;41.83;;;12.30;99.90;;;;;;4985797;28;20069;-62
2021/09/02 01:28:46;;;;;;;120.18;46.75;;;12.30;99.90;;;;;;4989015;28;20023;-61
2021/09/02 01:31:13;;;;;;;108.65;42.50;;;12.30;99.90;;;;;;4987980;28;20034;-60
2021/09/02 01:33:44;;;;;;;112.07;44.40;;;12.40;99.90;;;;;;4988170;28;20034;-61
2021/09/02 01:36:10;;;;;;;101.35;43.08;;;12.40;99.90;;;;;;4990531;28;20046;-61
2021/09/02 01:38:37;;;;;;;95.40;40.75;;;12.50;99.90;;;;;;4987921;28;20044;-61
2021/09/02 01:41:03;;;;;;;93.15;40.35;;;12.60;99.90;;;;;;4989886;28;20038;-61
2021/09/02 01:43:28;;;;;;;104.72;40.65;;;12.60;99.90;;;;;;4988773;28;20409;-62
2021/09/02 01:45:54;;;;;;;98.13;41.75;;;12.70;99.90;;;;;;4989325;28;20026;-61
2021/09/02 01:48:20;;;;;;;104.25;41.28;;;12.60;99.90;;;;;;4986809;28;20401;-60
2021/09/02 01:50:45;;;;;;;97.72;41.45;;;12.60;99.90;;;;;;4971935;28;20092;-60
2021/09/02 01:53:14;;;;;;;95.10;40.10;;;12.60;99.90;;;;;;4986128;28;20041;-59
2021/09/02 01:55:41;;;;;;;94.18;38.47;;;12.60;99.90;;;;;;4989024;28;20101;-60
2021/09/02 01:58:06;;;;;;;95.43;41.95;;;12.70;99.90;;;;;;4986071;28;20142;-60
2021/09/02 02:00:34;;;;;;;95.30;41.63;;;12.70;99.90;;;;;;4987293;28;21870;-60
2021/09/02 02:02:59;;;;;;;86.55;38.92;;;12.80;99.90;;;;;;4989807;28;20042;-60
2021/09/02 02:05:25;;;;;;;86.22;40.38;;;12.80;99.90;;;;;;4984474;28;20030;-61
2021/09/02 02:07:52;;;;;;;90.68;38.40;;;12.80;99.90;;;;;;4989117;28;20057;-60
2021/09/02 02:10:22;;;;;;;95.25;40.53;;;12.80;99.90;;;;;;4989780;28;20026;-58
2021/09/02 02:12:47;;;;;;;105.20;39.92;;;12.90;99.90;;;;;;4988599;28;20031;-60
2021/09/02 02:15:14;;;;;;;91.57;39.90;;;12.90;99.90;;;;;;4988705;28;20026;-60
2021/09/02 02:17:41;;;;;;;95.30;41.35;;;12.90;99.90;;;;;;4987712;28;20030;-60
2021/09/02 02:20:08;;;;;;;96.03;39.17;;;12.90;99.90;;;;;;4982136;28;20057;-60
2021/09/02 02:22:34;;;;;;;102.53;42.38;;;12.80;99.90;;;;;;4986374;28;20816;-61
2021/09/02 02:24:59;;;;;;;97.35;38.53;;;12.80;99.90;;;;;;4988389;28;20045;-60
2021/09/02 02:27:25;;;;;;;102.20;40.25;;;12.80;99.90;;;;;;4987988;28;20085;-59
2021/09/02 02:29:50;;;;;;;94.95;41.15;;;12.80;99.90;;;;;;4978126;28;20034;-60
2021/09/02 02:32:16;;;;;;;88.30;39.25;;;12.80;99.90;;;;;;4989589;28;20030;-58
2021/09/02 02:34:41;;;;;;;105.22;41.60;;;12.80;99.90;;;;;;4989476;28;20483;-59
2021/09/02 02:37:07;;;;;;;98.97;42.10;;;12.80;99.90;;;;;;4988074;28;20447;-60
2021/09/02 02:39:37;;;;;;;103.60;41.05;;;12.80;99.90;;;;;;4988461;28;20064;-60
2021/09/02 02:42:06;;;;;;;105.35;41.97;;;12.80;99.90;;;;;;4988602;28;20486;-61
2021/09/02 02:44:31;;;;;;;100.00;41.08;;;12.80;99.90;;;;;;4989717;28;20088;-60
2021/09/02 02:46:57;;;;;;;96.15;39.40;;;12.80;99.90;;;;;;4987131;28;20506;-60
2021/09/02 02:49:22;;;;;;;93.40;39.35;;;12.80;99.90;;;;;;4988503;28;20038;-59
2021/09/02 02:51:48;;;;;;;96.60;38.63;;;12.80;99.90;;;;;;4988333;28;20034;-60
2021/09/02 02:54:13;;;;;;;100.72;40.35;;;12.80;99.90;;;;;;4988753;28;20030;-59
2021/09/02 02:56:39;;;;;;;100.50;40.22;;;12.80;99.90;;;;;;4989275;28;20051;-60
2021/09/02 02:59:04;;;;;;;94.22;38.22;;;12.80;99.90;;;;;;4989222;28;20031;-59
2021/09/02 03:01:30;;;;;;;94.25;37.40;;;12.80;99.90;;;;;;4986738;28;20034;-61
2021/09/02 03:03:55;;;;;;;89.88;38.13;;;12.80;99.90;;;;;;4990006;28;20030;-61
2021/09/02 03:06:21;;;;;;;88.93;37.53;;;12.90;99.90;;;;;;4982709;28;20030;-58
2021/09/02 03:08:46;;;;;;;98.32;39.38;;;12.90;99.90;;;;;;4989452;28;20039;-61
2021/09/02 03:11:12;;;;;;;89.55;36.17;;;12.90;99.90;;;;;;4987430;28;20084;-60
2021/09/02 03:13:40;;;;;;;92.85;37.42;;;12.80;99.90;;;;;;4990744;28;20457;-61
2021/09/02 03:16:06;;;;;;;91.07;38.65;;;12.80;99.90;;;;;;4988611;28;20498;-61
2021/09/02 03:18:31;;;;;;;94.78;38.20;;;12.80;99.90;;;;;;4987283;28;20040;-61
2021/09/02 03:20:57;;;;;;;90.95;37.08;;;12.80;99.90;;;;;;4986439;28;20037;-60
2021/09/02 03:23:22;;;;;;;95.45;37.95;;;12.80;99.90;;;;;;4990920;28;20038;-61
2021/09/02 03:25:48;;;;;;;83.43;35.72;;;12.80;99.90;;;;;;4992099;28;20022;-58
2021/09/02 03:28:13;;;;;;;95.13;36.88;;;12.80;99.90;;;;;;4991503;28;20026;-61
2021/09/02 03:30:39;;;;;;;96.28;39.03;;;12.80;99.90;;;;;;4988834;28;20023;-61
2021/09/02 03:33:04;;;;;;;96.43;38.50;;;12.80;99.90;;;;;;4984044;28;20054;-61
2021/09/02 03:35:30;;;;;;;90.07;38.05;;;12.80;99.90;;;;;;4991957;28;20097;-62
2021/09/02 03:37:55;;;;;;;90.68;38.03;;;12.70;99.90;;;;;;4992625;28;20490;-61
2021/09/02 03:40:21;;;;;;;93.97;38.95;;;12.70;99.90;;;;;;4990899;28;20014;-60
2021/09/02 03:42:47;;;;;;;93.00;39.03;;;12.70;99.90;;;;;;4992558;28;20034;-61
2021/09/02 03:45:12;;;;;;;95.43;39.15;;;12.70;99.90;;;;;;4991786;28;20034;-61
2021/09/02 03:47:38;;;;;;;107.72;39.58;;;12.70;99.90;;;;;;4990577;28;20034;-61
2021/09/02 03:50:04;;;;;;;86.68;36.35;;;12.70;99.90;;;;;;4990454;28;20034;-60
2021/09/02 03:52:30;;;;;;;88.82;35.63;;;12.70;99.90;;;;;;4991112;28;20077;-60
2021/09/02 03:54:56;;;;;;;93.75;37.15;;;12.60;99.90;;;;;;4992298;28;20533;-59
2021/09/02 03:57:21;;;;;;;86.97;37.22;;;12.60;99.90;;;;;;4990419;28;20391;-59
2021/09/02 03:59:47;;;;;;;83.50;35.83;;;12.50;99.90;;;;;;4992076;28;20125;-60
2021/09/02 04:02:12;;;;;;;93.43;37.65;;;12.50;99.90;;;;;;4990210;28;20101;-58
2021/09/02 04:04:38;;;;;;;90.53;35.13;;;12.50;99.90;;;;;;4989592;28;20708;-60
2021/09/02 04:07:05;;;;;;;93.05;35.90;;;12.40;99.90;;;;;;4992166;28;20482;-59
2021/09/02 04:09:31;;;;;;;91.13;36.17;;;12.30;99.90;;;;;;4991641;28;20022;-60
2021/09/02 04:11:57;;;;;;;94.88;38.33;;;12.30;99.90;;;;;;4990072;28;20018;-60
2021/09/02 04:14:22;;;;;;;86.45;35.28;;;12.30;99.90;;;;;;4988659;28;20029;-59
2021/09/02 04:16:48;;;;;;;86.88;35.88;;;12.20;99.90;;;;;;4988788;28;20508;-59
2021/09/02 04:19:13;;;;;;;83.07;35.30;;;12.20;99.90;;;;;;4990602;28;20041;-60
2021/09/02 04:21:39;;;;;;;80.25;33.90;;;12.20;99.90;;;;;;4989597;28;20030;-60
2021/09/02 04:24:05;;;;;;;84.70;35.22;;;12.20;99.90;;;;;;4972363;28;20121;-60
2021/09/02 04:26:30;;;;;;;82.00;34.83;;;12.20;99.90;;;;;;4991731;28;20696;-60
2021/09/02 04:28:56;;;;;;;81.53;34.95;;;12.10;99.90;;;;;;4993020;28;20458;-60
2021/09/02 04:31:21;;;;;;;81.88;34.83;;;12.10;99.90;;;;;;4989573;28;20035;-61
2021/09/02 04:33:47;;;;;;;82.45;33.65;;;12.00;99.90;;;;;;4992219;28;20030;-60
2021/09/02 04:36:12;;;;;;;85.57;34.60;;;12.00;99.90;;;;;;4984939;28;20034;-61
2021/09/02 04:38:38;;;;;;;77.97;32.45;;;12.00;99.90;;;;;;4990968;28;20030;-59
2021/09/02 04:41:03;;;;;;;76.53;33.40;;;12.00;99.90;;;;;;4990814;28;20494;-60
2021/09/02 04:43:29;;;;;;;77.30;32.80;;;11.90;99.90;;;;;;4992721;28;20395;-61
2021/09/02 04:45:54;;;;;;;83.38;34.33;;;11.90;99.90;;;;;;4974640;28;20026;-61
2021/09/02 04:48:22;;;;;;;81.55;33.33;;;11.80;99.90;;;;;;4990698;28;20049;-60
2021/09/02 04:50:49;;;;;;;83.55;33.83;;;11.80;99.90;;;;;;4991061;28;20521;-60
2021/09/02 04:53:16;;;;;;;83.45;33.17;;;11.80;99.90;;;;;;4992359;28;20042;-61
2021/09/02 04:55:42;;;;;;;79.75;34.08;;;11.70;99.90;;;;;;4990131;28;20045;-60
2021/09/02 04:58:09;;;;;;;79.97;31.33;;;11.70;99.90;;;;;;4989468;28;20031;-61
2021/09/02 05:00:37;;;;;;;73.63;31.83;;;11.70;99.90;;;;;;4988026;28;20091;-61
2021/09/02 05:03:03;;;;;;;81.47;33.83;;;11.60;99.90;;;;;;4989633;28;20092;-61
2021/09/02 05:05:30;;;;;;;77.68;29.70;;;11.60;99.90;;;;;;4989115;28;20022;-60
2021/09/02 05:07:56;;;;;;;70.80;30.65;;;11.50;99.90;;;;;;4990685;28;20038;-61
2021/09/02 05:10:22;;;;;;;74.72;29.60;;;11.50;99.90;;;;;;4987591;28;20053;-61
2021/09/02 05:12:48;;;;;;;73.40;30.30;;;11.60;99.90;;;;;;4983539;28;20102;-61
2021/09/02 05:15:13;;;;;;;68.47;29.63;;;11.50;99.90;;;;;;4995183;28;20101;-61
2021/09/02 05:17:39;;;;;;;63.30;28.92;;;11.50;99.90;;;;;;4988829;28;20054;-60
2021/09/02 05:20:05;;;;;;;59.05;27.40;;;11.40;99.90;;;;;;4984345;28;20045;-61
2021/09/02 05:22:31;;;;;;;66.10;30.13;;;11.40;99.90;;;;;;4988960;28;20391;-60
2021/09/02 05:24:57;;;;;;;60.22;26.95;;;11.40;99.90;;;;;;4987601;28;20042;-61
2021/09/02 05:27:22;;;;;;;72.28;31.77;;;11.40;99.90;;;;;;4986086;28;20038;-61
2021/09/02 05:29:48;;;;;;;64.70;28.85;;;11.40;99.90;;;;;;4990959;28;20112;-61
2021/09/02 05:32:14;;;;;;;60.10;27.08;;;11.50;99.90;;;;;;4987930;28;20022;-61
2021/09/02 05:34:39;;;;;;;56.10;26.23;;;11.60;99.90;;;;;;4988434;28;20462;-60
2021/09/02 05:37:05;;;;;;;60.65;27.45;;;11.60;99.90;;;;;;4987018;28;20041;-61
2021/09/02 05:39:31;;;;;;;68.28;28.67;;;11.70;99.90;;;;;;4991376;28;20031;-61
2021/09/02 05:41:56;;;;;;;52.65;27.45;;;11.70;99.90;;;;;;4988043;28;20510;-60
2021/09/02 05:44:22;;;;;;;65.32;28.90;;;11.70;99.90;;;;;;4990283;28;20610;-61
2021/09/02 05:46:47;;;;;;;65.60;28.83;;;11.70;99.90;;;;;;4988380;28;20482;-61
2021/09/02 05:49:13;;;;;;;65.93;28.55;;;11.80;99.90;;;;;;4989306;28;20035;-62
2021/09/02 05:51:39;;;;;;;70.25;30.73;;;11.80;99.90;;;;;;4984204;28;20074;-61
2021/09/02 05:54:05;;;;;;;70.00;30.52;;;11.80;99.90;;;;;;4989835;28;20026;-61
2021/09/02 05:56:31;;;;;;;68.93;30.52;;;11.90;99.90;;;;;;4983120;28;20431;-62
2021/09/02 05:58:56;;;;;;;72.75;29.95;;;11.90;99.90;;;;;;4983531;28;20049;-59
2021/09/02 06:01:22;;;;;;;68.97;29.35;;;11.90;99.90;;;;;;4983478;28;20034;-61
2021/09/02 06:03:48;;;;;;;64.60;29.52;;;12.00;99.90;;;;;;4982865;28;20031;-61
2021/09/02 06:06:13;;;;;;;66.78;27.52;;;12.00;99.90;;;;;;4981601;28;20045;-61
2021/09/02 06:08:39;;;;;;;68.18;29.33;;;12.00;99.90;;;;;;4982310;28;20057;-61
2021/09/02 06:11:05;;;;;;;70.70;30.85;;;12.10;99.90;;;;;;4984123;28;20490;-60
2021/09/02 06:13:34;;;;;;;74.78;29.42;;;12.00;99.90;;;;;;4986173;28;20573;-61
2021/09/02 06:16:01;;;;;;;71.82;29.10;;;12.10;99.90;;;;;;4981677;28;20026;-60
2021/09/02 06:18:27;;;;;;;63.35;28.00;;;12.10;99.90;;;;;;4982151;28;20045;-61
2021/09/02 06:20:52;;;;;;;70.40;29.00;;;12.20;99.90;;;;;;4982090;28;20037;-61
2021/09/02 06:23:18;;;;;;;79.97;30.08;;;12.20;99.90;;;;;;4981641;28;20390;-59
2021/09/02 06:25:44;;;;;;;71.13;29.25;;;12.30;99.90;;;;;;4984694;28;20069;-61
2021/09/02 06:28:09;;;;;;;73.38;30.23;;;12.30;99.90;;;;;;4982468;28;20026;-61
2021/09/02 06:30:35;;;;;;;74.80;30.75;;;12.40;99.90;;;;;;4982740;28;20035;-59
2021/09/02 06:33:00;;;;;;;67.45;29.58;;;12.50;99.90;;;;;;4988696;28;20104;-61
2021/09/02 06:35:27;;;;;;;84.18;30.52;;;12.50;99.90;;;;;;4991567;28;20023;-61
2021/09/02 06:37:52;;;;;;;94.07;33.78;;;12.60;99.90;;;;;;4990979;28;20030;-61
2021/09/02 06:40:18;;;;;;;88.65;35.38;;;12.60;99.90;;;;;;4989109;28;20154;-60
2021/09/02 06:42:43;;;;;;;105.38;37.60;;;12.80;99.90;;;;;;4982625;28;20035;-61
2021/09/02 06:45:09;;;;;;;103.47;38.78;;;12.80;99.90;;;;;;4982153;28;20089;-60
2021/09/02 06:47:37;;;;;;;135.75;46.42;;;13.00;99.90;;;;;;4978503;28;20121;-59
2021/09/02 06:50:04;;;;;;;153.20;51.40;;;13.10;99.90;;;;;;4982070;28;20022;-60
2021/09/02 06:52:29;;;;;;;132.82;47.75;;;13.20;99.90;;;;;;4981467;28;20038;-62
2021/09/02 06:54:55;;;;;;;126.53;48.75;;;13.30;99.90;;;;;;4982382;28;20049;-61
2021/09/02 06:57:20;;;;;;;151.38;50.45;;;13.30;99.90;;;;;;4982557;28;20026;-61
2021/09/02 06:59:46;;;;;;;130.35;53.53;;;13.40;99.90;;;;;;4985856;28;20128;-59
2021/09/02 07:02:11;;;;;;;134.10;50.58;;;13.40;99.90;;;;;;4985462;28;20116;-60
2021/09/02 07:04:37;;;;;;;154.85;55.97;;;13.40;99.90;;;;;;4966151;28;20117;-61
2021/09/02 07:07:03;;;;;;;162.48;55.95;;;13.40;99.90;;;;;;5016823;23;20116;-55
2021/09/02 07:09:28;;;;;;;169.63;59.22;;;13.50;99.90;;;;;;5023392;28;20393;-59
2021/09/02 07:11:54;;;;;;;159.98;60.08;;;13.60;99.90;;;;;;5023262;28;20025;-63
2021/09/02 07:14:19;;;;;;;158.23;57.97;;;13.70;99.90;;;;;;5020972;28;20034;-60
2021/09/02 07:16:45;;;;;;;152.77;58.33;;;13.70;99.90;;;;;;5017505;28;20045;-58
2021/09/02 07:19:10;;;;;;;148.80;57.25;;;13.80;99.90;;;;;;5009975;28;20038;-61
2021/09/02 07:21:36;;;;;;;138.82;54.78;;;13.90;99.90;;;;;;5008293;28;20030;-60
2021/09/02 07:24:02;;;;;;;128.10;53.88;;;14.00;99.90;;;;;;5011476;28;20506;-61
2021/09/02 07:26:27;;;;;;;150.50;57.42;;;14.00;99.90;;;;;;5015706;28;20033;-59
2021/09/02 07:28:53;;;;;;;143.50;58.05;;;14.00;99.90;;;;;;4996329;28;20363;-62
2021/09/02 07:31:18;;;;;;;130.65;55.05;;;14.10;99.90;;;;;;4997021;28;20028;-57
2021/09/02 07:33:44;;;;;;;132.13;53.72;;;14.20;99.90;;;;;;5009989;28;20535;-61
2021/09/02 07:36:09;;;;;;;132.50;55.38;;;14.00;99.90;;;;;;5001387;28;20070;-58
2021/09/02 07:38:35;;;;;;;130.85;55.58;;;14.00;99.90;;;;;;5003014;28;20069;-61
2021/09/02 07:41:01;;;;;;;153.25;58.22;;;13.90;99.90;;;;;;5010482;28;20493;-58
2021/09/02 07:43:27;;;;;;;146.73;56.83;;;13.90;99.90;;;;;;5007010;28;20099;-56
2021/09/02 07:45:52;;;;;;;155.68;56.83;;;14.10;99.90;;;;;;5011226;28;20098;-58
2021/09/02 07:48:18;;;;;;;148.43;55.72;;;14.10;99.90;;;;;;5003364;28;20029;-59
2021/09/02 07:50:43;;;;;;;151.57;59.33;;;14.00;99.90;;;;;;5009576;28;20437;-60
2021/09/02 07:53:09;;;;;;;160.65;59.92;;;14.10;99.90;;;;;;5010069;28;20022;-57
2021/09/02 07:55:35;;;;;;;146.50;57.42;;;14.00;99.90;;;;;;5007648;28;20053;-56
2021/09/02 07:58:01;;;;;;;157.55;59.70;;;14.10;99.90;;;;;;5009823;28;20092;-59
2021/09/02 08:00:27;;;;;;;159.02;56.28;;;14.10;99.90;;;;;;5009299;28;20026;-56
2021/09/02 08:02:52;;;;;;;160.57;59.25;;;14.10;99.90;;;;;;5008883;28;20116;-57
2021/09/02 08:05:18;;;;;;;169.45;62.00;;;14.20;99.90;;;;;;5009047;28;20057;-58
2021/09/02 08:07:53;;;;;;;172.27;60.80;;;14.10;99.90;;;;;;5007610;28;20022;-58
2021/09/02 08:10:24;;;;;;;159.20;58.92;;;14.00;99.90;;;;;;5008364;28;20026;-58
2021/09/02 08:12:50;;;;;;;168.50;61.58;;;14.20;99.90;;;;;;5008530;28;20026;-58
2021/09/02 08:15:19;;;;;;;162.70;61.63;;;14.30;99.90;;;;;;5009149;28;20113;-57
2021/09/02 08:17:45;;;;;;;158.32;60.90;;;14.30;99.90;;;;;;5008353;28;20038;-60
2021/09/02 08:20:13;;;;;;;163.80;64.75;;;14.40;99.90;;;;;;5007761;28;20383;-60
2021/09/02 08:22:39;;;;;;;155.45;58.55;;;14.40;99.90;;;;;;4996470;28;20620;-57
2021/09/02 08:25:07;;;;;;;167.23;62.42;;;14.50;99.90;;;;;;5011248;28;20104;-55
2021/09/02 08:27:32;;;;;;;148.02;56.08;;;14.50;99.90;;;;;;5009126;28;20062;-61
2021/09/02 08:29:58;;;;;;;146.50;58.17;;;14.40;99.90;;;;;;5009922;28;20076;-60
2021/09/02 08:32:24;;;;;;;138.02;57.63;;;14.40;99.90;;;;;;5009441;28;20033;-60
2021/09/02 08:34:49;;;;;;;147.77;60.35;;;14.40;99.90;;;;;;5004734;28;20034;-57
2021/09/02 08:37:15;;;;;;;147.45;56.67;;;14.30;99.90;;;;;;5004893;28;20105;-57
2021/09/02 08:39:41;;;;;;;140.38;56.42;;;14.30;99.90;;;;;;5006985;28;20104;-59
2021/09/02 08:42:08;;;;;;;137.70;58.13;;;14.40;99.90;;;;;;5011129;28;20406;-60
2021/09/02 08:44:34;;;;;;;131.73;53.40;;;14.40;99.90;;;;;;5007496;28;20103;-58
2021/09/02 08:47:00;;;;;;;136.15;52.15;;;14.50;99.90;;;;;;4991355;28;20034;-57
2021/09/02 08:49:26;;;;;;;132.35;52.35;;;14.50;99.90;;;;;;5006464;28;20022;-60
2021/09/02 08:51:52;;;;;;;140.45;52.58;;;14.60;99.90;;;;;;4982118;28;20060;-57
2021/09/02 08:54:18;;;;;;;118.72;48.90;;;14.70;99.90;;;;;;4986142;28;20485;-57
2021/09/02 08:56:44;;;;;;;105.47;47.42;;;14.80;99.90;;;;;;4998782;28;20030;-60
2021/09/02 08:59:10;;;;;;;116.70;48.03;;;14.90;99.90;;;;;;5005961;28;20406;-59
2021/09/02 09:01:35;;;;;;;116.07;49.70;;;15.10;99.90;;;;;;5000043;28;20048;-58
2021/09/02 09:04:12;;;;;;;108.20;46.60;;;15.20;99.90;;;;;;4994414;28;20112;-58
2021/09/02 09:06:38;;;;;;;99.03;43.63;;;15.30;99.90;;;;;;4997331;28;20113;-59
2021/09/02 09:09:15;;;;;;;100.68;41.95;;;15.40;99.90;;;;;;4990059;28;20053;-59
2021/09/02 09:11:49;;;;;;;104.82;44.35;;;15.60;99.90;;;;;;5003124;28;20022;-58
2021/09/02 09:14:24;;;;;;;98.47;42.72;;;15.70;99.90;;;;;;5010299;28;20134;-57
2021/09/02 09:16:54;;;;;;;100.10;43.90;;;15.90;99.90;;;;;;5009359;28;20029;-61
2021/09/02 09:19:52;;;;;;;95.60;41.38;;;16.10;99.90;;;;;;5009791;28;20038;-59
2021/09/02 09:22:20;;;;;;;86.93;39.38;;;16.20;99.90;;;;;;4998158;28;20037;-58
2021/09/02 09:24:53;;;;;;;88.68;38.33;;;16.30;99.90;;;;;;5007211;28;20076;-57
2021/09/02 09:27:24;;;;;;;78.32;38.40;;;16.30;99.90;;;;;;5007433;28;20072;-60
2021/09/02 09:30:09;;;;;;;74.50;35.15;;;16.50;99.90;;;;;;5008064;28;20018;-63
2021/09/02 09:32:47;;;;;;;70.25;32.47;;;16.70;99.90;;;;;;5007801;28;20026;-61
2021/09/02 09:35:20;;;;;;;66.93;32.38;;;16.90;99.90;;;;;;5007533;28;20026;-59
2021/09/02 09:37:48;;;;;;;64.47;30.20;;;17.00;99.90;;;;;;5005744;28;20453;-57
2021/09/02 09:40:23;;;;;;;57.35;28.67;;;16.90;99.90;;;;;;5000687;28;20916;-61
2021/09/02 09:43:02;;;;;;;58.60;26.80;;;17.00;99.90;;;;;;5004146;28;20034;-57
2021/09/02 09:45:46;;;;;;;60.17;25.55;;;17.20;99.90;;;;;;5005674;28;20490;-57
2021/09/02 09:48:17;;;;;;;42.97;20.02;;;17.40;99.90;;;;;;5002282;28;20037;-58
2021/09/02 09:51:04;;;;;;;37.65;19.80;;;17.70;99.90;;;;;;5006137;28;20033;-59
2021/09/02 09:53:30;;;;;;;35.90;18.02;;;17.90;99.90;;;;;;5002959;28;20089;-60
2021/09/02 09:55:56;;;;;;;36.92;18.60;;;18.20;99.90;;;;;;5007139;28;20061;-60
2021/09/02 09:58:23;;;;;;;43.03;19.40;;;18.30;99.90;;;;;;5005352;28;20038;-61
2021/09/02 10:00:55;;;;;;;41.58;19.02;;;18.30;99.90;;;;;;5006196;28;20068;-58
2021/09/02 10:03:21;;;;;;;37.92;19.33;;;18.40;99.90;;;;;;5002908;28;20593;-57
2021/09/02 10:05:48;;;;;;;37.75;18.80;;;18.70;99.90;;;;;;5005312;28;20040;-59
2021/09/02 10:08:15;;;;;;;39.38;19.63;;;18.90;99.90;;;;;;5004532;28;20073;-61
2021/09/02 10:10:41;;;;;;;44.90;22.02;;;19.10;99.90;;;;;;5005304;28;20022;-60
2021/09/02 10:13:07;;;;;;;45.70;21.85;;;19.20;99.90;;;;;;5007320;28;20413;-54
2021/09/02 10:15:33;;;;;;;43.03;19.58;;;19.30;99.90;;;;;;5007813;28;20184;-58
2021/09/02 10:17:59;;;;;;;33.10;18.77;;;19.10;99.90;;;;;;5008074;28;20093;-60
2021/09/02 10:20:28;;;;;;;38.28;18.40;;;19.30;99.90;;;;;;5006436;28;20041;-57
2021/09/02 10:22:59;;;;;;;37.03;17.25;;;19.40;99.90;;;;;;5006570;28;20405;-59
2021/09/02 10:25:31;;;;;;;34.88;17.25;;;19.70;99.90;;;;;;5006098;28;20141;-58
2021/09/02 10:28:08;;;;;;;38.63;17.42;;;20.00;99.90;;;;;;5003964;28;20571;-62
2021/09/02 10:30:46;;;;;;;32.28;17.15;;;20.20;99.90;;;;;;5004801;28;20406;-58
2021/09/02 10:33:33;;;;;;;30.75;16.35;;;20.40;99.90;;;;;;5009949;28;20485;-58
2021/09/02 10:36:00;;;;;;;31.60;16.25;;;20.50;99.90;;;;;;5010024;28;20034;-57
2021/09/02 10:38:55;;;;;;;24.27;14.50;;;20.60;99.90;;;;;;5010731;28;20029;-59
2021/09/02 10:41:44;;;;;;;;;;;20.50;99.90;;;;;;5009118;28;20038;-61
2021/09/02 10:44:12;;;;;;;29.80;13.55;;;20.70;99.90;;;;;;5002457;28;19972;-58
2021/09/02 10:46:45;;;;;;;24.20;14.48;;;20.70;99.90;;;;;;5007243;28;20042;-58
2021/09/02 10:49:31;;;;;;;25.13;13.00;;;20.90;99.90;;;;;;5010949;28;20453;-60
2021/09/02 10:52:04;;;;;;;22.42;11.93;;;21.10;99.90;;;;;;5008203;28;20392;-62
2021/09/02 10:54:34;;;;;;;22.25;13.20;;;21.50;99.90;;;;;;5011549;28;20109;-57
2021/09/02 10:57:00;;;;;;;21.92;13.00;;;21.40;99.90;;;;;;5010402;28;20111;-59
2021/09/02 10:59:49;;;;;;;25.27;12.60;;;21.30;99.90;;;;;;5010328;28;20563;-59
2021/09/02 11:02:21;;;;;;;21.58;12.27;;;21.50;99.90;;;;;;5007723;28;20030;-57
2021/09/02 11:05:08;;;;;;;22.40;11.18;;;21.50;99.90;;;;;;5009249;28;20049;-61
2021/09/02 11:07:44;;;;;;;24.77;13.77;;;21.50;99.90;;;;;;5008875;28;20173;-54
2021/09/02 11:10:14;;;;;;;24.40;11.75;;;21.50;99.90;;;;;;5008961;28;20729;-56
2021/09/02 11:12:40;;;;;;;21.05;11.38;;;21.60;99.90;;;;;;5008003;28;20041;-58
2021/09/02 11:15:07;;;;;;;24.15;10.52;;;21.90;99.90;;;;;;5010720;28;20113;-59
2021/09/02 11:17:32;;;;;;;17.23;9.55;;;21.90;99.90;;;;;;5010534;28;20065;-58
2021/09/02 11:19:58;;;;;;;14.90;8.75;;;21.90;99.90;;;;;;5009911;28;20061;-57
2021/09/02 11:22:24;;;;;;;16.65;9.90;;;22.20;99.90;;;;;;5010426;28;20434;-55
2021/09/02 11:24:52;;;;;;;18.20;9.27;;;22.30;99.90;;;;;;5009314;28;20061;-60
2021/09/02 11:27:33;;;;;;;22.90;9.77;;;22.30;99.90;;;;;;5008963;28;20062;-60
2021/09/02 11:30:25;;;;;;;17.10;8.60;;;22.20;99.90;;;;;;5009445;28;20133;-59
2021/09/02 11:32:53;;;;;;;17.35;8.60;;;22.40;99.90;;;;;;5006210;28;20014;-58
2021/09/02 11:35:19;;;;;;;15.90;8.48;;;22.50;99.90;;;;;;5006164;28;20049;-57
2021/09/02 11:37:45;;;;;;;18.63;8.10;;;22.70;99.90;;;;;;5003276;28;20033;-57
2021/09/02 11:40:34;;;;;;;13.85;7.85;;;22.90;99.90;;;;;;5008502;28;20041;-58
2021/09/02 11:43:01;;;;;;;15.88;8.73;;;23.00;99.90;;;;;;5009035;28;20121;-61
2021/09/02 11:45:33;;;;;;;19.30;8.38;;;23.20;99.90;;;;;;5008381;28;20116;-61
2021/09/02 11:48:04;;;;;;;11.20;7.93;;;23.10;99.90;;;;;;5008883;28;20397;-61
2021/09/02 11:50:29;;;;;;;11.50;7.55;;;23.30;99.90;;;;;;5009300;28;20030;-59
2021/09/02 11:52:55;;;;;;;12.15;7.72;;;23.20;99.90;;;;;;5008744;28;20792;-61
2021/09/02 11:55:24;;;;;;;13.63;7.47;;;23.30;99.90;;;;;;4991240;28;20048;-57
2021/09/02 11:57:54;;;;;;;11.35;7.03;;;23.70;99.90;;;;;;5006223;28;20073;-61
2021/09/02 12:00:20;;;;;;;13.55;7.93;;;23.50;99.90;;;;;;5004860;28;20025;-58
2021/09/02 12:02:57;;;;;;;12.80;7.72;;;23.60;99.90;;;;;;5013344;28;20055;-61
2021/09/02 12:05:42;;;;;;;12.43;7.15;;;23.40;99.90;;;;;;5008225;28;20445;-61
2021/09/02 12:08:08;;;;;;;;;;;23.70;99.90;;;;;;5009391;28;20034;-58
2021/09/02 12:10:34;;;;;;;16.73;7.72;;;23.60;99.90;;;;;;5009998;28;20016;-59
2021/09/02 12:13:21;;;;;;;12.07;7.25;;;23.60;99.90;;;;;;5009598;28;20133;-60
2021/09/02 12:16:02;;;;;;;12.35;7.05;;;23.70;99.90;;;;;;5007320;28;20029;-59
2021/09/02 12:18:29;;;;;;;15.40;8.27;;;23.90;99.90;;;;;;5005849;28;20034;-61
2021/09/02 12:21:09;;;;;;;10.73;7.20;;;23.80;99.90;;;;;;5006035;28;20107;-58
2021/09/02 12:24:08;;;;;;;12.57;7.45;;;24.30;99.90;;;;;;5004417;28;20497;-57
2021/09/02 12:26:52;;;;;;;11.70;6.93;;;24.60;99.90;;;;;;5001712;28;20050;-59
2021/09/02 12:29:21;;;;;;;12.10;7.30;;;24.70;99.90;;;;;;5004128;28;20113;-58